Time,TemperatureF,DewpointF,PressureIn,WindDirection,WindDirectionDegrees,WindSpeedMPH,WindSpeedGustMPH,Humidity,HourlyPrecipIn,Conditions,Clouds,dailyrainin,SoftwareType,DateUTC
2013-10-07 00:00:00,47.8,39.6,30.03,NE,50,0.0,0.0,73,0.00,,SKC,0.00,VWS V13.01,2013-10-07 05:00:00,
2013-10-07 00:10:00,47.8,40.0,30.03,NE,50,0.0,0.0,74,0.00,,SKC,0.00,VWS V13.01,2013-10-07 05:10:00,
2013-10-07 00:20:00,47.8,40.0,30.06,NE,50,0.0,0.0,74,0.00,,SKC,0.00,VWS V13.01,2013-10-07 05:20:00,
2013-10-07 00:30:00,47.5,40.0,30.06,NE,50,0.0,0.0,75,0.00,,SKC,0.00,VWS V13.01,2013-10-07 05:30:00,
2013-10-07 00:40:00,47.5,40.3,30.03,NE,50,0.0,0.0,76,0.00,,SKC,0.00,VWS V13.01,2013-10-07 05:40:00,
2013-10-07 00:50:00,47.5,40.3,30.03,NE,50,0.0,0.0,76,0.00,,SKC,0.00,VWS V13.01,2013-10-07 05:50:00,
2013-10-07 01:00:00,47.3,40.5,30.03,NE,50,0.0,0.0,77,0.00,,SKC,0.00,VWS V13.01,2013-10-07 06:00:00,
2013-10-07 01:10:00,47.1,40.6,30.03,NE,50,0.0,0.0,78,0.00,,SKC,0.00,VWS V13.01,2013-10-07 06:10:00,
2013-10-07 01:20:00,46.9,40.5,30.06,NE,50,0.0,0.0,78,0.00,,SKC,0.00,VWS V13.01,2013-10-07 06:20:00,
2013-10-07 01:30:00,46.8,40.6,30.06,NE,50,0.0,0.0,79,0.00,,SKC,0.00,VWS V13.01,2013-10-07 06:30:00,
2013-10-07 01:40:00,46.6,40.4,30.06,NE,50,0.0,0.0,79,0.00,,SKC,0.00,VWS V13.01,2013-10-07 06:40:00,
2013-10-07 01:50:00,46.6,40.8,30.06,NE,50,0.0,0.0,80,0.00,,SKC,0.00,VWS V13.01,2013-10-07 06:50:00,
2013-10-07 02:00:00,46.2,40.4,30.06,NE,50,0.0,0.0,80,0.00,,SKC,0.00,VWS V13.01,2013-10-07 07:00:00,
2013-10-07 02:10:00,46.0,40.2,30.06,NE,50,0.0,0.0,80,0.00,,SKC,0.00,VWS V13.01,2013-10-07 07:10:00,
2013-10-07 02:20:00,45.9,40.4,30.06,NE,50,0.0,0.0,81,0.00,,SKC,0.00,VWS V13.01,2013-10-07 07:20:00,
2013-10-07 02:30:00,46.0,40.5,30.06,NE,50,0.0,0.0,81,0.00,,SKC,0.00,VWS V13.01,2013-10-07 07:30:00,
2013-10-07 02:40:00,46.2,41.0,30.06,NE,50,0.0,0.0,82,0.00,,SKC,0.00,VWS V13.01,2013-10-07 07:40:00,
2013-10-07 02:50:00,46.8,41.2,30.06,NE,50,0.0,0.0,81,0.00,,SKC,0.00,VWS V13.01,2013-10-07 07:50:00,
2013-10-07 03:00:00,46.9,40.5,30.06,NE,50,0.0,0.0,78,0.00,,SKC,0.00,VWS V13.01,2013-10-07 08:00:00,
2013-10-07 03:10:00,46.9,39.8,30.06,NE,50,0.0,0.0,76,0.00,,SKC,0.00,VWS V13.01,2013-10-07 08:10:00,
2013-10-07 03:20:00,46.9,39.1,30.06,NE,50,0.0,0.0,74,0.00,,SKC,0.00,VWS V13.01,2013-10-07 08:20:00,
2013-10-07 03:30:00,46.9,38.8,30.06,NE,50,0.0,0.0,73,0.00,,SKC,0.00,VWS V13.01,2013-10-07 08:30:00,
2013-10-07 03:40:00,47.1,38.2,30.06,NE,50,0.0,0.0,71,0.00,,SKC,0.00,VWS V13.01,2013-10-07 08:40:00,
2013-10-07 03:50:00,47.1,37.5,30.06,NE,50,0.0,0.0,69,0.00,,SKC,0.00,VWS V13.01,2013-10-07 08:50:00,
2013-10-07 04:00:00,46.9,36.6,30.06,NE,50,0.0,0.0,67,0.00,,SKC,0.00,VWS V13.01,2013-10-07 09:00:00,
2013-10-07 04:10:00,46.9,36.2,30.06,NE,50,0.0,0.0,66,0.00,,SKC,0.00,VWS V13.01,2013-10-07 09:10:00,
2013-10-07 04:20:00,46.9,35.8,30.09,NE,50,0.0,0.0,65,0.00,,SKC,0.00,VWS V13.01,2013-10-07 09:20:00,
2013-10-07 04:30:00,46.9,35.8,30.09,NE,50,0.0,0.0,65,0.00,,SKC,0.00,VWS V13.01,2013-10-07 09:30:00,
2013-10-07 04:40:00,46.9,35.4,30.09,NE,50,0.0,0.0,64,0.00,,SKC,0.00,VWS V13.01,2013-10-07 09:40:00,
2013-10-07 04:50:00,46.9,35.4,30.09,NE,50,0.0,0.0,64,0.00,,SKC,0.00,VWS V13.01,2013-10-07 09:50:00,
2013-10-07 05:00:00,46.8,34.8,30.09,NE,50,0.0,0.0,63,0.00,,SKC,0.00,VWS V13.01,2013-10-07 10:00:00,
2013-10-07 05:10:00,46.6,34.7,30.09,NE,50,0.0,0.0,63,0.00,,SKC,0.00,VWS V13.01,2013-10-07 10:10:00,
2013-10-07 05:20:00,46.4,34.5,30.09,NE,50,0.0,0.0,63,0.00,,SKC,0.00,VWS V13.01,2013-10-07 10:20:00,
2013-10-07 05:30:00,46.0,34.6,30.09,NE,50,0.0,0.0,64,0.00,,SKC,0.00,VWS V13.01,2013-10-07 10:30:00,
2013-10-07 05:40:00,45.5,34.0,30.09,NE,50,0.0,0.0,64,0.00,,SKC,0.00,VWS V13.01,2013-10-07 10:40:00,
2013-10-07 05:50:00,44.6,33.2,30.09,NE,50,0.0,0.0,64,0.00,,SKC,0.00,VWS V13.01,2013-10-07 10:50:00,
2013-10-07 06:00:00,44.2,33.2,30.09,NE,50,0.0,0.0,65,0.00,,SKC,0.00,VWS V13.01,2013-10-07 11:00:00,
2013-10-07 06:10:00,43.9,33.3,30.09,NE,50,0.0,0.0,66,0.00,,SKC,0.00,VWS V13.01,2013-10-07 11:10:00,
2013-10-07 06:20:00,43.5,33.3,30.12,NE,50,0.0,0.0,67,0.00,,SKC,0.00,VWS V13.01,2013-10-07 11:20:00,
2013-10-07 06:30:00,43.2,33.3,30.12,NE,50,0.0,0.0,68,0.00,,SKC,0.00,VWS V13.01,2013-10-07 11:30:00,
2013-10-07 06:40:00,43.2,33.7,30.12,NE,50,0.0,0.0,69,0.00,,SKC,0.00,VWS V13.01,2013-10-07 11:40:00,
2013-10-07 06:50:00,43.0,33.9,30.12,NE,50,0.0,0.0,70,0.00,,SKC,0.00,VWS V13.01,2013-10-07 11:50:00,
2013-10-07 07:00:00,43.0,34.2,30.12,NE,50,0.0,0.0,71,0.00,,SKC,0.00,VWS V13.01,2013-10-07 12:00:00,
2013-10-07 07:10:00,42.6,34.2,30.12,NE,50,0.0,0.0,72,0.00,,SKC,0.00,VWS V13.01,2013-10-07 12:10:00,
2013-10-07 07:20:00,42.4,34.4,30.12,NE,50,0.0,0.0,73,0.00,,SKC,0.00,VWS V13.01,2013-10-07 12:20:00,
2013-10-07 07:30:00,42.3,34.6,30.12,NE,50,0.0,0.0,74,0.00,,SKC,0.00,VWS V13.01,2013-10-07 12:30:00,
2013-10-07 07:40:00,42.3,34.6,30.12,NE,50,0.0,0.0,74,0.00,,SKC,0.00,VWS V13.01,2013-10-07 12:40:00,
2013-10-07 07:50:00,42.3,34.9,30.15,NE,50,0.0,0.0,75,0.00,,SKC,0.00,VWS V13.01,2013-10-07 12:50:00,
2013-10-07 08:00:00,42.4,35.1,30.15,NE,50,0.0,0.0,75,0.00,,SKC,0.00,VWS V13.01,2013-10-07 13:00:00,
2013-10-07 08:10:00,42.8,35.4,30.15,NE,50,0.0,0.0,75,0.00,,SKC,0.00,VWS V13.01,2013-10-07 13:10:00,
2013-10-07 08:20:00,43.2,36.1,30.15,NE,50,0.0,0.0,76,0.00,,SKC,0.00,VWS V13.01,2013-10-07 13:20:00,
2013-10-07 08:30:00,43.7,36.6,30.15,NE,50,0.0,0.0,76,0.00,,SKC,0.00,VWS V13.01,2013-10-07 13:30:00,
2013-10-07 08:40:00,44.8,37.7,30.15,NE,50,0.0,0.0,76,0.00,,SKC,0.00,VWS V13.01,2013-10-07 13:40:00,
2013-10-07 08:50:00,45.9,38.4,30.15,NE,50,0.0,0.0,75,0.00,,SKC,0.00,VWS V13.01,2013-10-07 13:50:00,
2013-10-07 09:00:00,46.6,38.0,30.15,NE,48,0.0,0.0,72,0.00,,SKC,0.00,VWS V13.01,2013-10-07 14:00:00,
2013-10-07 09:10:00,47.1,37.1,30.18,NNE,25,0.0,0.0,68,0.00,,SKC,0.00,VWS V13.01,2013-10-07 14:10:00,
2013-10-07 09:20:00,47.5,36.7,30.18,NNE,15,0.0,0.0,66,0.00,,SKC,0.00,VWS V13.01,2013-10-07 14:20:00,
2013-10-07 09:30:00,48.0,36.8,30.18,NNE,19,0.0,0.0,65,0.00,,SKC,0.00,VWS V13.01,2013-10-07 14:30:00,
2013-10-07 09:40:00,48.9,37.3,30.18,NNE,22,0.0,0.0,64,0.00,,SKC,0.00,VWS V13.01,2013-10-07 14:40:00,
2013-10-07 09:50:00,49.5,37.4,30.18,NNE,24,0.0,0.0,63,0.00,,SKC,0.00,VWS V13.01,2013-10-07 14:50:00,
2013-10-07 10:00:00,50.2,38.1,30.18,NNE,25,0.0,0.0,63,0.00,,SKC,0.00,VWS V13.01,2013-10-07 15:00:00,
2013-10-07 10:10:00,50.9,38.8,30.18,NNE,25,0.0,0.0,63,0.00,,SKC,0.00,VWS V13.01,2013-10-07 15:10:00,
2013-10-07 10:20:00,52.0,39.4,30.18,NNE,24,0.0,0.0,62,0.00,,SKC,0.00,VWS V13.01,2013-10-07 15:20:00,
2013-10-07 10:30:00,52.9,40.2,30.18,NNE,25,0.0,0.0,62,0.00,,SKC,0.00,VWS V13.01,2013-10-07 15:30:00,
2013-10-07 10:40:00,53.8,40.2,30.18,NE,45,0.0,0.0,60,0.00,,SKC,0.00,VWS V13.01,2013-10-07 15:40:00,
2013-10-07 10:50:00,54.7,40.2,30.18,NE,45,0.0,0.0,58,0.00,,SKC,0.00,VWS V13.01,2013-10-07 15:50:00,
2013-10-07 11:00:00,55.8,39.8,30.18,NNE,25,0.0,0.0,55,0.00,,SKC,0.00,VWS V13.01,2013-10-07 16:00:00,
2013-10-07 11:10:00,56.5,40.0,30.18,NNE,27,0.0,0.0,54,0.00,,SKC,0.00,VWS V13.01,2013-10-07 16:10:00,
2013-10-07 11:20:00,57.4,39.9,30.18,NE,56,0.0,0.0,52,0.00,,SKC,0.00,VWS V13.01,2013-10-07 16:20:00,
2013-10-07 11:30:00,58.5,40.9,30.18,NE,50,0.0,0.0,52,0.00,,SKC,0.00,VWS V13.01,2013-10-07 16:30:00,
2013-10-07 11:40:00,59.5,40.9,30.18,NE,38,0.0,0.0,50,0.00,,SKC,0.00,VWS V13.01,2013-10-07 16:40:00,
2013-10-07 11:50:00,60.4,40.7,30.18,NNE,31,0.0,0.0,48,0.00,,SKC,0.00,VWS V13.01,2013-10-07 16:50:00,
2013-10-07 12:00:00,61.5,40.0,30.18,NNE,31,0.0,0.0,45,0.00,,SKC,0.00,VWS V13.01,2013-10-07 17:00:00,
2013-10-07 12:10:00,62.4,39.0,30.18,NNE,30,0.0,0.0,42,0.00,,SKC,0.00,VWS V13.01,2013-10-07 17:10:00,
2013-10-07 12:20:00,63.3,38.0,30.18,NNE,30,0.0,0.0,39,0.00,,SKC,0.00,VWS V13.01,2013-10-07 17:20:00,
2013-10-07 12:30:00,64.2,38.8,30.18,NNE,31,0.0,0.0,39,0.00,,SKC,0.00,VWS V13.01,2013-10-07 17:30:00,
2013-10-07 12:40:00,65.1,39.6,30.18,NNE,18,0.0,0.0,39,0.00,,SKC,0.00,VWS V13.01,2013-10-07 17:40:00,
2013-10-07 12:50:00,66.0,38.3,30.18,NNE,28,0.0,3.1,36,0.00,,SKC,0.00,VWS V13.01,2013-10-07 17:50:00,
2013-10-07 13:00:00,66.7,39.0,30.18,NE,42,0.0,0.0,36,0.00,,SKC,0.00,VWS V13.01,2013-10-07 18:00:00,
2013-10-07 13:10:00,67.3,39.4,30.18,East,82,0.0,4.0,36,0.00,,SKC,0.00,VWS V13.01,2013-10-07 18:10:00,
2013-10-07 13:20:00,67.8,39.9,30.18,NNE,31,0.0,4.0,36,0.00,,SKC,0.00,VWS V13.01,2013-10-07 18:20:00,
2013-10-07 13:30:00,68.5,40.5,30.18,ESE,110,0.0,0.0,36,0.00,,SKC,0.00,VWS V13.01,2013-10-07 18:30:00,
2013-10-07 13:40:00,69.3,41.2,30.15,NE,41,0.0,3.1,36,0.00,,SKC,0.00,VWS V13.01,2013-10-07 18:40:00,
2013-10-07 13:50:00,69.6,41.5,30.15,NNE,23,0.0,2.2,36,0.00,,SKC,0.00,VWS V13.01,2013-10-07 18:50:00,
2013-10-07 14:00:00,70.0,41.1,30.15,ENE,74,0.0,2.2,35,0.00,,SKC,0.00,VWS V13.01,2013-10-07 19:00:00,
2013-10-07 14:10:00,70.5,41.6,30.15,NNE,29,0.0,5.4,35,0.00,,SKC,0.00,VWS V13.01,2013-10-07 19:10:00,
2013-10-07 14:20:00,71.1,42.0,30.15,NNE,33,0.0,0.0,35,0.00,,SKC,0.00,VWS V13.01,2013-10-07 19:20:00,
2013-10-07 14:30:00,71.4,42.4,30.15,NNE,30,2.7,2.7,35,0.00,,SKC,0.00,VWS V13.01,2013-10-07 19:30:00,
2013-10-07 14:40:00,71.4,42.4,30.15,NNE,28,0.0,3.6,35,0.00,,SKC,0.00,VWS V13.01,2013-10-07 19:40:00,
2013-10-07 14:50:00,72.0,42.8,30.15,NNE,22,4.0,4.0,35,0.00,,SKC,0.00,VWS V13.01,2013-10-07 19:50:00,
2013-10-07 15:00:00,72.0,42.8,30.15,NNE,25,0.0,5.4,35,0.00,,SKC,0.00,VWS V13.01,2013-10-07 20:00:00,
2013-10-07 15:10:00,72.1,43.0,30.15,ENE,58,2.2,3.6,35,0.00,,SKC,0.00,VWS V13.01,2013-10-07 20:10:00,
2013-10-07 15:20:00,72.1,43.0,30.12,NNE,23,0.0,2.7,35,0.00,,SKC,0.00,VWS V13.01,2013-10-07 20:20:00,
2013-10-07 15:30:00,72.5,43.3,30.12,ENE,61,0.0,0.0,35,0.00,,SKC,0.00,VWS V13.01,2013-10-07 20:30:00,
2013-10-07 15:40:00,72.7,43.5,30.12,NE,52,0.0,0.0,35,0.00,,SKC,0.00,VWS V13.01,2013-10-07 20:40:00,
2013-10-07 15:50:00,72.7,43.5,30.12,NNE,33,0.0,0.0,35,0.00,,SKC,0.00,VWS V13.01,2013-10-07 20:50:00,
2013-10-07 16:00:00,72.9,43.6,30.12,NNE,24,0.0,0.0,35,0.00,,SKC,0.00,VWS V13.01,2013-10-07 21:00:00,
2013-10-07 16:10:00,72.9,43.6,30.12,NNE,25,0.0,0.0,35,0.00,,SKC,0.00,VWS V13.01,2013-10-07 21:10:00,
2013-10-07 16:20:00,73.0,43.8,30.12,NE,36,0.0,0.0,35,0.00,,SKC,0.00,VWS V13.01,2013-10-07 21:20:00,
2013-10-07 16:30:00,73.0,43.8,30.12,ENE,65,0.0,0.0,35,0.00,,SKC,0.00,VWS V13.01,2013-10-07 21:30:00,
2013-10-07 16:40:00,73.2,44.0,30.12,NNE,29,0.0,0.0,35,0.00,,SKC,0.00,VWS V13.01,2013-10-07 21:40:00,
2013-10-07 16:50:00,73.0,43.8,30.12,NNE,14,0.0,2.7,35,0.00,,SKC,0.00,VWS V13.01,2013-10-07 21:50:00,
2013-10-07 17:00:00,73.0,43.8,30.12,NNE,24,0.0,0.0,35,0.00,,SKC,0.00,VWS V13.01,2013-10-07 22:00:00,
2013-10-07 17:10:00,72.9,43.6,30.12,NE,50,0.0,0.0,35,0.00,,SKC,0.00,VWS V13.01,2013-10-07 22:10:00,
2013-10-07 17:20:00,72.9,43.6,30.12,NNE,13,0.0,0.0,35,0.00,,SKC,0.00,VWS V13.01,2013-10-07 22:20:00,
2013-10-07 17:30:00,73.4,43.3,30.12,NNE,29,0.0,0.0,34,0.00,,SKC,0.00,VWS V13.01,2013-10-07 22:30:00,
2013-10-07 17:40:00,73.0,43.8,30.09,NNE,30,0.0,0.0,35,0.00,,SKC,0.00,VWS V13.01,2013-10-07 22:40:00,
2013-10-07 17:50:00,72.3,43.2,30.12,NNE,22,0.0,0.0,35,0.00,,SKC,0.00,VWS V13.01,2013-10-07 22:50:00,
2013-10-07 18:00:00,71.8,42.7,30.12,NNE,21,0.0,0.0,35,0.00,,SKC,0.00,VWS V13.01,2013-10-07 23:00:00,
2013-10-07 18:10:00,71.2,42.2,30.12,NNE,21,0.0,0.0,35,0.00,,SKC,0.00,VWS V13.01,2013-10-07 23:10:00,
2013-10-07 18:20:00,70.9,41.9,30.09,NNE,21,0.0,0.0,35,0.00,,SKC,0.00,VWS V13.01,2013-10-07 23:20:00,
2013-10-07 18:30:00,70.3,41.4,30.09,NNE,21,0.0,0.0,35,0.00,,SKC,0.00,VWS V13.01,2013-10-07 23:30:00,
2013-10-07 18:40:00,69.6,41.5,30.12,NNE,21,0.0,0.0,36,0.00,,SKC,0.00,VWS V13.01,2013-10-07 23:40:00,
2013-10-07 18:50:00,68.5,40.5,30.12,NNE,21,0.0,0.0,36,0.00,,SKC,0.00,VWS V13.01,2013-10-07 23:50:00,
2013-10-07 19:00:00,66.9,39.1,30.12,NNE,21,0.0,0.0,36,0.00,,SKC,0.00,VWS V13.01,2013-10-08 00:00:00,
2013-10-07 19:10:00,65.1,37.5,30.12,NNE,21,0.0,0.0,36,0.00,,SKC,0.00,VWS V13.01,2013-10-08 00:10:00,
2013-10-07 19:20:00,63.1,37.8,30.12,NNE,21,0.0,0.0,39,0.00,,SKC,0.00,VWS V13.01,2013-10-08 00:20:00,
2013-10-07 19:30:00,61.7,37.2,30.12,NNE,21,0.0,0.0,40,0.00,,SKC,0.00,VWS V13.01,2013-10-08 00:30:00,
2013-10-07 19:40:00,60.3,37.7,30.12,NNE,21,0.0,0.0,43,0.00,,SKC,0.00,VWS V13.01,2013-10-08 00:40:00,
2013-10-07 19:50:00,59.2,37.9,30.12,NNE,21,0.0,0.0,45,0.00,,SKC,0.00,VWS V13.01,2013-10-08 00:50:00,
2013-10-07 20:00:00,58.3,39.7,30.12,NNE,21,0.0,0.0,50,0.00,,SKC,0.00,VWS V13.01,2013-10-08 01:00:00,
2013-10-07 20:10:00,57.4,39.4,30.12,NNE,21,0.0,0.0,51,0.00,,SKC,0.00,VWS V13.01,2013-10-08 01:10:00,
2013-10-07 20:20:00,56.7,39.7,30.12,NNE,21,0.0,0.0,53,0.00,,SKC,0.00,VWS V13.01,2013-10-08 01:20:00,
2013-10-07 20:30:00,56.1,39.7,30.12,NNE,21,0.0,0.0,54,0.00,,SKC,0.00,VWS V13.01,2013-10-08 01:30:00,
2013-10-07 20:40:00,55.9,40.0,30.12,NNE,21,0.0,0.0,55,0.00,,SKC,0.00,VWS V13.01,2013-10-08 01:40:00,
2013-10-07 20:50:00,55.6,40.6,30.12,NNE,21,0.0,0.0,57,0.00,,SKC,0.00,VWS V13.01,2013-10-08 01:50:00,
2013-10-07 21:00:00,55.2,41.2,30.12,NNE,21,0.0,0.0,59,0.00,,SKC,0.00,VWS V13.01,2013-10-08 02:00:00,
2013-10-07 21:10:00,54.9,41.7,30.12,NNE,21,0.0,0.0,61,0.00,,SKC,0.00,VWS V13.01,2013-10-08 02:10:00,
2013-10-07 21:20:00,54.7,41.9,30.15,NNE,21,0.0,0.0,62,0.00,,SKC,0.00,VWS V13.01,2013-10-08 02:20:00,
2013-10-07 21:30:00,54.5,41.8,30.15,NNE,21,0.0,0.0,62,0.00,,SKC,0.00,VWS V13.01,2013-10-08 02:30:00,
2013-10-07 21:40:00,54.3,41.6,30.15,NNE,21,0.0,0.0,62,0.00,,SKC,0.00,VWS V13.01,2013-10-08 02:40:00,
2013-10-07 21:50:00,54.0,41.2,30.15,NNE,21,0.0,0.0,62,0.00,,SKC,0.00,VWS V13.01,2013-10-08 02:50:00,
2013-10-07 22:00:00,53.6,41.3,30.15,NNE,21,0.0,0.0,63,0.00,,SKC,0.00,VWS V13.01,2013-10-08 03:00:00,
2013-10-07 22:10:00,53.4,41.6,30.15,NNE,21,0.0,0.0,64,0.00,,SKC,0.00,VWS V13.01,2013-10-08 03:10:00,
2013-10-07 22:20:00,53.1,41.2,30.15,NNE,21,0.0,0.0,64,0.00,,SKC,0.00,VWS V13.01,2013-10-08 03:20:00,
2013-10-07 22:30:00,53.1,41.2,30.15,NNE,21,0.0,0.0,64,0.00,,SKC,0.00,VWS V13.01,2013-10-08 03:30:00,
2013-10-07 22:40:00,52.9,41.5,30.15,NNE,21,0.0,0.0,65,0.00,,SKC,0.00,VWS V13.01,2013-10-08 03:40:00,
2013-10-07 22:50:00,52.5,41.1,30.15,NNE,21,0.0,0.0,65,0.00,,SKC,0.00,VWS V13.01,2013-10-08 03:50:00,
2013-10-07 23:00:00,52.3,40.9,30.15,NNE,21,0.0,0.0,65,0.00,,SKC,0.00,VWS V13.01,2013-10-08 04:00:00,
2013-10-07 23:10:00,52.0,41.0,30.15,NNE,21,0.0,0.0,66,0.00,,SKC,0.00,VWS V13.01,2013-10-08 04:10:00,
2013-10-07 23:20:00,51.6,41.0,30.15,NNE,21,0.0,0.0,67,0.00,,SKC,0.00,VWS V13.01,2013-10-08 04:20:00,
2013-10-07 23:30:00,51.4,40.9,30.15,NNE,21,0.0,0.0,67,0.00,,SKC,0.00,VWS V13.01,2013-10-08 04:30:00,
2013-10-07 23:40:00,51.3,41.1,30.15,NNE,21,0.0,0.0,68,0.00,,SKC,0.00,VWS V13.01,2013-10-08 04:40:00,
2013-10-07 23:50:00,50.9,40.7,30.15,NNE,21,0.0,0.0,68,0.00,,SKC,0.00,VWS V13.01,2013-10-08 04:50:00,